Time;durP1;ratioP1;P1;durP2;ratioP2;P2;SDS_P1;SDS_P2;PMS_P1;PMS_P2;Temp;Humidity;BMP_temperature;BMP_pressure;BME280_temperature;BME280_humidity;BME280_pressure;Samples;Min_cycle;Max_cycle;Signal;HPM_P1;HPM_P2
2022/11/06 00:00:38;;;;;;;11.80;5.93;;;;;;;8.28;100.00;101315.00;5112083;28;20043;-54
2022/11/06 00:03:07;;;;;;;9.55;5.40;;;;;;;8.37;100.00;101302.38;5111857;28;20077;-52
2022/11/06 00:08:30;;;;;;;13.73;5.80;;;;;;;8.25;100.00;101307.31;5111493;28;20043;-52
2022/11/06 00:10:59;;;;;;;10.82;5.10;;;;;;;8.28;100.00;101308.94;5115134;28;20498;-54
2022/11/06 00:13:28;;;;;;;12.60;5.38;;;;;;;8.27;100.00;101297.59;5115351;28;20498;-53
2022/11/06 00:16:01;;;;;;;9.05;5.75;;;;;;;8.23;100.00;101305.69;5114781;27;20058;-50
2022/11/06 00:18:29;;;;;;;9.75;5.55;;;;;;;8.23;100.00;101303.91;5113072;28;20055;-53
2022/11/06 00:20:57;;;;;;;11.07;5.30;;;;;;;8.21;100.00;101310.16;5113184;28;20101;-48
2022/11/06 00:23:26;;;;;;;10.52;5.25;;;;;;;8.18;100.00;101316.41;5114865;28;20079;-53
2022/11/06 00:25:55;;;;;;;11.40;5.57;;;;;;;8.19;100.00;101312.81;5114621;28;20486;-52
2022/11/06 00:28:23;;;;;;;10.93;5.18;;;;;;;8.12;100.00;101320.13;5114919;27;20047;-51
2022/11/06 00:30:51;;;;;;;13.10;5.50;;;;;;;8.09;100.00;101324.69;5114852;28;20039;-51
2022/11/06 00:33:21;;;;;;;10.45;5.38;;;;;;;8.11;100.00;101325.44;5114516;28;20044;-49
2022/11/06 00:35:49;;;;;;;10.70;4.82;;;;;;;8.13;100.00;101321.84;5113182;28;20055;-49
2022/11/06 00:38:17;;;;;;;9.43;4.90;;;;;;;8.14;100.00;101325.31;5114476;28;20114;-52
2022/11/06 00:40:45;;;;;;;13.30;5.13;;;;;;;8.17;100.00;101322.53;5113307;28;20051;-50
2022/11/06 00:43:13;;;;;;;11.48;4.68;;;;;;;8.19;100.00;101320.69;5111155;28;20108;-48
2022/11/06 00:45:41;;;;;;;12.20;4.97;;;;;;;8.18;100.00;101324.25;5113648;28;20048;-51
2022/11/06 00:48:09;;;;;;;11.93;4.75;;;;;;;8.19;100.00;101301.50;5110948;27;20063;-52
2022/11/06 00:50:39;;;;;;;10.63;4.60;;;;;;;8.21;100.00;101299.69;5111412;28;20070;-52
2022/11/06 00:53:08;;;;;;;14.77;5.15;;;;;;;8.25;100.00;101303.84;5114440;28;20506;-51
2022/11/06 00:55:38;;;;;;;10.00;4.30;;;;;;;8.22;100.00;101312.72;5114127;27;20502;-50
2022/11/06 00:58:06;;;;;;;10.23;4.05;;;;;;;8.24;100.00;101294.28;5113844;28;20455;-51
2022/11/06 01:00:34;;;;;;;11.50;4.70;;;;;;;8.28;100.00;101307.16;5113623;28;20085;-50
2022/11/06 01:03:02;;;;;;;10.55;4.38;;;;;;;8.19;100.00;101301.50;5114200;28;20104;-53
2022/11/06 01:05:30;;;;;;;12.10;5.07;;;;;;;8.19;100.00;101301.50;5114070;28;20123;-55
2022/11/06 01:08:00;;;;;;;9.70;3.83;;;;;;;8.16;100.00;101294.63;5113943;28;20082;-55
2022/11/06 01:10:28;;;;;;;12.43;4.63;;;;;;;8.23;100.00;101292.56;5111621;28;20040;-55
2022/11/06 01:12:56;;;;;;;10.77;4.50;;;;;;;8.18;100.00;101287.56;5110498;28;20071;-55
2022/11/06 01:15:24;;;;;;;12.95;4.30;;;;;;;8.13;100.00;101282.53;5111320;28;20048;-55
2022/11/06 01:17:52;;;;;;;10.32;4.13;;;;;;;8.12;100.00;101278.22;5113709;28;20514;-54
2022/11/06 01:20:20;;;;;;;8.98;4.28;;;;;;;8.16;100.00;101278.91;5113335;28;20506;-54
2022/11/06 01:22:48;;;;;;;12.07;4.40;;;;;;;8.15;100.00;101271.13;5111098;28;20047;-55
2022/11/06 01:25:18;;;;;;;9.95;5.00;;;;;;;8.13;100.00;101264.19;5109496;28;20578;-54
2022/11/06 01:27:49;;;;;;;11.25;4.13;;;;;;;8.12;100.00;101262.50;5110273;28;20114;-55
2022/11/06 01:30:17;;;;;;;10.13;4.38;;;;;;;8.10;100.00;101260.91;5110850;28;20048;-55
2022/11/06 01:32:45;;;;;;;13.75;4.55;;;;;;;8.10;100.00;101264.34;5109919;28;20079;-55
2022/11/06 01:35:13;;;;;;;12.05;4.95;;;;;;;8.12;100.00;101264.28;5113530;28;20507;-55
2022/11/06 01:37:42;;;;;;;11.27;4.30;;;;;;;8.14;100.00;101267.69;5113309;28;20097;-56
2022/11/06 01:40:11;;;;;;;10.32;4.30;;;;;;;8.10;100.00;101263.50;5109894;28;20047;-55
2022/11/06 01:42:40;;;;;;;13.70;5.15;;;;;;;8.16;100.00;101259.75;5110074;28;20097;-55
2022/11/06 01:45:23;;;;;;;11.90;4.13;;;;;;;8.16;100.00;101265.81;5110155;28;20043;-56
2022/11/06 01:47:52;;;;;;;10.60;4.28;;;;;;;8.13;100.00;101261.56;5109473;28;20051;-55
2022/11/06 01:50:20;;;;;;;7.70;4.10;;;;;;;8.22;100.00;101267.28;5109638;28;20039;-55
2022/11/06 01:52:50;;;;;;;10.20;4.18;;;;;;;8.19;100.00;101265.66;5110045;28;20048;-54
2022/11/06 01:55:25;;;;;;;12.50;4.22;;;;;;;8.13;100.00;101256.34;5113259;28;20044;-54
2022/11/06 01:57:57;;;;;;;10.25;4.40;;;;;;;8.10;100.00;101255.66;5111625;28;20043;-55
2022/11/06 02:00:25;;;;;;;9.55;4.60;;;;;;;8.07;100.00;101251.41;5109968;27;20048;-54
2022/11/06 02:02:56;;;;;;;10.65;4.25;;;;;;;8.13;100.00;101253.72;5112307;28;20444;-54
2022/11/06 02:05:24;;;;;;;10.52;3.83;;;;;;;8.11;100.00;101252.09;5109083;28;20047;-55
2022/11/06 02:07:53;;;;;;;13.30;3.90;;;;;;;8.07;100.00;101245.31;5109884;28;20557;-55
2022/11/06 02:10:21;;;;;;;12.73;4.30;;;;;;;8.04;100.00;101240.22;5108353;28;20054;-55
2022/11/06 02:13:03;;;;;;;9.85;3.80;;;;;;;8.01;100.00;101243.00;5108558;28;20051;-54
2022/11/06 02:15:40;;;;;;;9.13;3.90;;;;;;;8.01;100.00;101235.13;5111928;28;20072;-54
2022/11/06 02:18:24;;;;;;;11.57;3.97;;;;;;;7.98;100.00;101236.13;5112918;28;20444;-55
2022/11/06 02:21:10;;;;;;;12.05;4.18;;;;;;;7.92;100.00;101237.28;5112920;28;20055;-55
2022/11/06 02:23:56;;;;;;;10.48;4.22;;;;;;;7.94;100.00;101243.28;5112843;28;20131;-55
2022/11/06 02:26:35;;;;;;;9.95;4.70;;;;;;;7.96;100.00;101240.56;5112449;28;20486;-56
2022/11/06 02:29:09;;;;;;;10.10;4.40;;;;;;;7.92;100.00;101233.78;5112460;28;20039;-54
2022/11/06 02:31:42;;;;;;;8.93;4.03;;;;;;;7.95;100.00;101229.25;5112287;28;20525;-54
2022/11/06 02:34:13;;;;;;;12.85;4.72;;;;;;;7.94;100.00;101224.09;5109454;28;20086;-54
2022/11/06 02:36:47;;;;;;;12.32;3.67;;;;;;;7.98;100.00;101223.03;5108722;28;20052;-54
2022/11/06 02:39:20;;;;;;;12.15;4.32;;;;;;;7.97;100.00;101233.59;5108576;28;20067;-54
2022/11/06 02:41:49;;;;;;;;;;;;;;;8.00;100.00;101233.44;5109612;28;20085;-54
2022/11/06 02:44:22;;;;;;;8.98;3.90;;;;;;;7.99;100.00;101237.84;5109050;28;19953;-55
2022/11/06 02:46:53;;;;;;;8.70;3.47;;;;;;;8.07;100.00;101226.97;5108496;28;20081;-54
2022/11/06 02:49:27;;;;;;;7.93;3.25;;;;;;;8.11;100.00;101223.28;5111251;28;20039;-54
2022/11/06 02:52:00;;;;;;;13.25;3.78;;;;;;;8.10;100.00;101226.84;5111061;28;20334;-55
2022/11/06 02:54:32;;;;;;;11.55;4.35;;;;;;;8.04;100.00;101224.50;5108416;28;20044;-54
2022/11/06 02:57:05;;;;;;;11.57;3.53;;;;;;;8.09;100.00;101217.28;5111883;28;20498;-54
2022/11/06 02:59:45;;;;;;;12.45;3.88;;;;;;;8.12;100.00;101217.94;5108687;28;20047;-48
2022/11/06 03:02:19;;;;;;;7.13;3.53;;;;;;;8.17;100.00;101215.13;5110106;28;20117;-53
2022/11/06 03:04:53;;;;;;;10.88;3.33;;;;;;;8.15;100.00;101210.88;5112347;28;20054;-54
2022/11/06 03:07:28;;;;;;;8.27;3.15;;;;;;;8.17;100.00;101211.66;5112155;28;20035;-54
2022/11/06 03:09:57;;;;;;;12.63;3.80;;;;;;;8.18;100.00;101201.09;5112575;28;20517;-54
2022/11/06 03:12:28;;;;;;;10.90;3.33;;;;;;;8.11;100.00;101202.31;5108980;28;20051;-54
2022/11/06 03:15:03;;;;;;;12.63;3.13;;;;;;;8.20;100.00;101209.72;5108517;28;20498;-55
2022/11/06 03:17:40;;;;;;;10.30;3.20;;;;;;;8.27;100.00;101208.50;5108833;28;20489;-54
2022/11/06 03:20:20;;;;;;;10.15;3.22;;;;;;;8.26;100.00;101209.44;5112893;28;20062;-56
2022/11/06 03:22:56;;;;;;;12.30;3.15;;;;;;;8.24;100.00;101208.66;5112822;28;20047;-56
2022/11/06 03:25:27;;;;;;;9.98;2.70;;;;;;;8.26;100.00;101203.31;5112249;28;20048;-56
2022/11/06 03:28:03;;;;;;;11.03;2.93;;;;;;;8.29;100.00;101198.78;5112881;28;20080;-56
2022/11/06 03:30:36;;;;;;;8.75;2.80;;;;;;;8.34;100.00;101202.97;5113965;28;20051;-56
2022/11/06 03:33:12;;;;;;;8.57;2.45;;;;;;;8.35;100.00;101212.53;5115782;28;20054;-56
2022/11/06 03:35:44;;;;;;;10.23;3.20;;;;;;;8.37;100.00;101205.41;5111078;28;20043;-54
2022/11/06 03:38:18;;;;;;;9.38;3.40;;;;;;;8.40;100.00;101208.75;5112949;27;20032;-56
2022/11/06 03:40:51;;;;;;;9.40;2.58;;;;;;;8.42;100.00;101211.28;5113715;28;20482;-55
2022/11/06 03:43:24;;;;;;;6.00;2.60;;;;;;;8.41;100.00;101204.34;5114121;28;20047;-54
2022/11/06 03:45:55;;;;;;;;;;;;;;;8.51;100.00;101210.84;5114466;28;20067;-53
2022/11/06 03:48:29;;;;;;;8.70;2.63;;;;;;;8.49;100.00;101198.75;5111340;28;19930;-55
2022/11/06 03:51:03;;;;;;;8.30;2.65;;;;;;;8.49;100.00;101190.88;5111689;28;20406;-55
2022/11/06 03:53:37;;;;;;;9.77;2.83;;;;;;;8.53;100.00;101184.56;5111669;28;20047;-55
2022/11/06 03:56:09;;;;;;;12.73;3.10;;;;;;;8.53;100.00;101184.56;5115132;28;20051;-55
2022/11/06 03:58:39;;;;;;;10.43;2.38;;;;;;;8.53;100.00;101184.56;5112414;27;20040;-54
2022/11/06 04:01:12;;;;;;;10.60;2.70;;;;;;;8.55;100.00;101177.44;5113989;28;20047;-52
2022/11/06 04:03:45;;;;;;;11.60;2.75;;;;;;;8.58;100.00;101182.56;5113366;27;20036;-56
2022/11/06 04:06:26;;;;;;;9.00;2.50;;;;;;;8.59;100.00;101184.25;5111867;28;20048;-55
2022/11/06 04:14:34;;;;;;;6.57;2.10;;;;;;;8.66;100.00;101167.28;5114833;28;20040;-55
2022/11/06 04:17:07;;;;;;;6.28;2.25;;;;;;;8.68;100.00;101172.44;5113838;28;20055;-54
2022/11/06 04:19:35;;;;;;;5.25;2.13;;;;;;;8.71;100.00;101174.88;5111538;28;20040;-54
2022/11/06 04:22:22;;;;;;;8.15;2.22;;;;;;;8.73;100.00;101173.06;5111898;27;20150;-54
2022/11/06 04:28:03;;;;;;;10.30;2.20;;;;;;;8.73;100.00;101162.56;5112855;28;20079;-55
2022/11/06 04:30:39;;;;;;;8.63;2.55;;;;;;;8.77;100.00;101162.31;5113055;28;20054;-54
2022/11/06 04:33:18;;;;;;;7.78;2.17;;;;;;;8.79;100.00;101151.72;5110727;28;20036;-54
2022/11/06 04:35:59;;;;;;;8.35;2.15;;;;;;;8.76;100.00;101146.66;5111095;27;20035;-55
2022/11/06 04:38:35;;;;;;;9.40;2.25;;;;;;;8.75;100.00;101150.19;5111267;28;20043;-54
2022/11/06 04:41:12;;;;;;;11.18;2.60;;;;;;;8.73;100.00;101154.69;5111309;28;20043;-55
2022/11/06 04:43:46;;;;;;;6.50;2.38;;;;;;;8.75;100.00;101152.81;5114425;28;20684;-54
2022/11/06 04:46:20;;;;;;;9.32;2.53;;;;;;;8.82;100.00;101148.97;5114871;28;20051;-56
2022/11/06 04:48:50;;;;;;;8.55;2.67;;;;;;;8.80;100.00;101141.16;5114452;28;20036;-55
2022/11/06 04:51:23;;;;;;;10.02;2.60;;;;;;;8.80;100.00;101145.56;5114360;28;20058;-54
2022/11/06 04:53:53;;;;;;;8.65;2.20;;;;;;;8.76;100.00;101138.78;5113048;28;20048;-55
2022/11/06 04:56:25;;;;;;;8.90;2.63;;;;;;;8.80;100.00;101138.53;5114263;28;20083;-56
2022/11/06 04:58:56;;;;;;;7.03;2.22;;;;;;;8.76;100.00;101130.94;5114507;28;20039;-55
2022/11/06 05:01:25;;;;;;;8.90;2.50;;;;;;;8.77;100.00;101122.97;5110912;28;20036;-55
2022/11/06 05:03:54;;;;;;;9.75;2.70;;;;;;;8.75;100.00;101116.97;5109795;28;20059;-55
2022/11/06 05:06:22;;;;;;;9.10;2.60;;;;;;;8.78;100.00;101121.19;5110148;28;20047;-55
2022/11/06 05:08:57;;;;;;;11.35;2.80;;;;;;;8.80;100.00;101120.19;5110529;28;20044;-54
2022/11/06 05:11:25;;;;;;;9.57;2.40;;;;;;;8.75;100.00;101116.97;5109680;28;20494;-55
2022/11/06 05:13:54;;;;;;;7.82;2.70;;;;;;;8.79;100.00;101122.88;5112838;28;20502;-54
2022/11/06 05:16:22;;;;;;;9.88;2.60;;;;;;;8.73;100.00;101112.75;5113841;28;20044;-56
2022/11/06 05:18:50;;;;;;;10.20;2.33;;;;;;;8.72;100.00;101113.66;5111071;28;20048;-55
2022/11/06 05:24:06;;;;;;;9.85;2.63;;;;;;;8.70;100.00;101126.00;5111941;28;20100;-55
2022/11/06 05:26:34;;;;;;;9.90;2.67;;;;;;;8.63;100.00;101109.75;5110022;28;20056;-55
2022/11/06 05:29:02;;;;;;;7.90;2.50;;;;;;;8.70;100.00;101118.13;5110500;28;20051;-53
2022/11/06 05:31:30;;;;;;;9.02;2.40;;;;;;;8.65;100.00;101125.41;5110116;28;20506;-55
2022/11/06 05:33:58;;;;;;;11.73;2.60;;;;;;;8.68;100.00;101123.44;5110318;28;20055;-54
2022/11/06 05:36:28;;;;;;;7.30;2.35;;;;;;;8.63;100.00;101118.47;5110438;28;20130;-55
2022/11/06 05:38:56;;;;;;;11.27;2.70;;;;;;;8.60;100.00;101115.16;5113540;28;20044;-55
2022/11/06 05:41:24;;;;;;;7.55;2.88;;;;;;;8.61;100.00;101107.19;5113421;28;20039;-55
2022/11/06 05:43:52;;;;;;;7.00;2.25;;;;;;;8.65;100.00;101110.50;5112318;28;20104;-56
2022/11/06 05:46:23;;;;;;;10.63;3.00;;;;;;;8.63;100.00;101112.38;5109330;28;20047;-54
2022/11/06 05:49:11;;;;;;;7.40;2.42;;;;;;;8.69;100.00;101111.22;5109758;28;20063;-53
2022/11/06 05:51:41;;;;;;;9.55;2.70;;;;;;;8.68;100.00;101102.47;5109750;28;20108;-58
2022/11/06 05:54:09;;;;;;;11.07;2.60;;;;;;;8.68;100.00;101102.47;5112528;28;20039;-55
2022/11/06 05:56:37;;;;;;;12.10;3.13;;;;;;;8.70;100.00;101099.75;5112471;28;20044;-55
2022/11/06 05:59:05;;;;;;;8.35;2.42;;;;;;;8.72;100.00;101087.44;5112509;28;20120;-54
2022/11/06 06:01:33;;;;;;;8.50;2.67;;;;;;;8.74;100.00;101086.44;5109535;28;20035;-50
2022/11/06 06:04:01;;;;;;;6.65;2.20;;;;;;;8.74;100.00;101088.19;5111246;28;20047;-49
2022/11/06 06:06:30;;;;;;;6.32;2.33;;;;;;;8.76;100.00;101081.09;5113120;28;20051;-54
2022/11/06 06:08:59;;;;;;;8.35;2.50;;;;;;;8.82;100.00;101080.78;5113033;28;20744;-55
2022/11/06 06:11:27;;;;;;;6.60;2.08;;;;;;;8.84;100.00;101076.28;5109171;28;20060;-55
2022/11/06 06:13:55;;;;;;;8.10;2.83;;;;;;;8.86;100.00;101081.44;5108963;27;20089;-55
2022/11/06 06:16:23;;;;;;;10.02;2.83;;;;;;;8.81;100.00;101079.09;5109583;28;20547;-55
2022/11/06 06:18:51;;;;;;;7.85;2.85;;;;;;;8.75;100.00;101071.53;5109010;28;20040;-55
2022/11/06 06:21:19;;;;;;;9.88;2.47;;;;;;;8.83;100.00;101065.88;5107738;28;20066;-55
2022/11/06 06:23:48;;;;;;;7.45;2.60;;;;;;;8.78;100.00;101071.34;5108895;28;20047;-55
2022/11/06 06:26:17;;;;;;;8.52;2.60;;;;;;;8.80;100.00;101069.50;5109102;28;20398;-55
2022/11/06 06:28:48;;;;;;;11.18;2.72;;;;;;;8.82;100.00;101067.66;5108978;28;20051;-56
2022/11/06 06:31:16;;;;;;;6.22;2.65;;;;;;;8.80;100.00;101069.50;5109269;28;20505;-55
2022/11/06 06:33:44;;;;;;;10.95;2.47;;;;;;;8.84;100.00;101067.59;5109141;28;20126;-56
2022/11/06 06:36:12;;;;;;;8.82;2.97;;;;;;;8.87;100.00;101070.88;5108226;28;20043;-55
2022/11/06 06:38:41;;;;;;;7.75;2.53;;;;;;;8.86;100.00;101065.72;5108592;28;20046;-55
2022/11/06 06:41:09;;;;;;;13.35;2.63;;;;;;;8.86;100.00;101069.19;5109110;28;20039;-55
2022/11/06 06:43:39;;;;;;;9.38;2.42;;;;;;;8.92;100.00;101062.75;5109011;28;20039;-53
2022/11/06 06:46:07;;;;;;;9.32;2.70;;;;;;;8.93;100.00;101061.81;5109283;28;20054;-54
2022/11/06 06:48:35;;;;;;;10.85;2.42;;;;;;;8.93;100.00;101067.06;5108423;28;20123;-55
2022/11/06 06:51:07;;;;;;;9.63;2.45;;;;;;;8.96;100.00;101061.66;5108727;28;20035;-55
2022/11/06 06:53:36;;;;;;;9.95;2.85;;;;;;;8.94;100.00;101064.38;5108398;28;20398;-53
2022/11/06 06:56:04;;;;;;;8.07;2.60;;;;;;;8.89;100.00;101060.28;5111136;28;20439;-55
2022/11/06 06:58:33;;;;;;;7.85;2.10;;;;;;;8.90;100.00;101067.22;5113244;28;20048;-54
2022/11/06 07:01:04;;;;;;;8.65;2.13;;;;;;;8.94;100.00;101061.75;5113675;28;20073;-50
2022/11/06 07:03:33;;;;;;;9.48;2.65;;;;;;;8.94;100.00;101071.38;5112958;28;20051;-51
2022/11/06 07:06:01;;;;;;;8.43;2.30;;;;;;;8.98;100.00;101070.28;5116425;28;20122;-52
2022/11/06 07:08:29;;;;;;;7.60;2.83;;;;;;;9.07;100.00;101063.69;5116387;28;20491;-53
2022/11/06 07:11:02;;;;;;;9.77;2.50;;;;;;;8.99;100.00;101063.28;5116587;28;20066;-53
2022/11/06 07:13:30;;;;;;;7.18;2.17;;;;;;;9.04;100.00;101069.09;5116558;28;20100;-52
2022/11/06 07:16:06;;;;;;;7.32;2.47;;;;;;;9.09;100.00;101056.56;5114750;28;20047;-51
2022/11/06 07:18:34;;;;;;;8.20;2.30;;;;;;;9.14;100.00;101047.50;5114478;28;20570;-51
2022/11/06 07:21:04;;;;;;;7.28;2.20;;;;;;;9.15;100.00;101048.38;5113134;27;20067;-53
2022/11/06 07:23:33;;;;;;;8.10;2.10;;;;;;;9.23;100.00;101038.28;5114798;28;20405;-52
2022/11/06 07:26:02;;;;;;;7.25;2.38;;;;;;;9.18;100.00;101024.56;5115936;28;20066;-52
2022/11/06 07:28:31;;;;;;;9.75;2.28;;;;;;;9.24;100.00;101028.63;5116009;28;20047;-48
2022/11/06 07:30:59;;;;;;;8.52;2.25;;;;;;;9.29;100.00;101027.44;5116073;28;20135;-55
2022/11/06 07:33:29;;;;;;;8.30;2.50;;;;;;;9.33;100.00;101022.03;5113092;28;20051;-56
2022/11/06 07:36:03;;;;;;;10.10;2.65;;;;;;;9.40;100.00;101026.81;5112288;28;20142;-53
2022/11/06 07:38:33;;;;;;;8.80;2.47;;;;;;;9.43;100.00;101033.69;5112117;28;20043;-51
2022/11/06 07:41:03;;;;;;;7.45;2.38;;;;;;;9.49;100.00;101041.22;5115662;28;20501;-50
2022/11/06 07:43:31;;;;;;;5.85;2.40;;;;;;;9.56;100.00;101037.28;5114061;28;20052;-51
2022/11/06 07:46:00;;;;;;;10.52;2.40;;;;;;;9.60;100.00;101038.81;5115751;28;20661;-49
2022/11/06 07:48:31;;;;;;;9.05;2.30;;;;;;;9.69;100.00;101049.72;5115584;28;20035;-50
2022/11/06 07:51:02;;;;;;;10.32;2.30;;;;;;;9.70;100.00;101043.53;5115650;28;20426;-52
2022/11/06 07:53:30;;;;;;;7.45;2.35;;;;;;;9.76;100.00;101048.41;5115736;28;20047;-50
2022/11/06 07:55:59;;;;;;;6.50;2.10;;;;;;;9.75;100.00;101052.84;5114308;28;20050;-49
2022/11/06 07:58:27;;;;;;;6.60;2.05;;;;;;;9.70;100.00;101040.91;5115377;28;20051;-51
2022/11/06 08:00:57;;;;;;;9.60;2.20;;;;;;;9.78;100.00;101038.69;5115793;28;20042;-51
2022/11/06 08:03:28;;;;;;;7.40;1.95;;;;;;;9.84;100.00;101051.44;5115471;28;20047;-51
2022/11/06 08:05:58;;;;;;;5.68;2.13;;;;;;;9.81;100.00;101031.44;5115087;28;20052;-50
2022/11/06 08:08:28;;;;;;;9.63;2.30;;;;;;;9.96;100.00;101034.09;5114724;28;20054;-51
2022/11/06 08:10:56;;;;;;;5.88;2.28;;;;;;;9.97;100.00;101033.19;5114790;28;20074;-48
2022/11/06 08:13:26;;;;;;;9.05;2.47;;;;;;;9.94;100.00;101033.38;5114795;28;20052;-51
2022/11/06 08:15:55;;;;;;;7.93;2.00;;;;;;;9.97;100.00;101031.38;5114938;28;20043;-52
2022/11/06 08:18:23;;;;;;;9.07;2.25;;;;;;;10.07;100.00;101022.97;5115038;28;20733;-52
2022/11/06 08:20:52;;;;;;;9.20;2.08;;;;;;;10.07;100.00;101022.97;5114979;28;20406;-51
2022/11/06 08:23:22;;;;;;;7.95;1.88;;;;;;;10.16;100.00;101019.78;5115021;28;20044;-52
2022/11/06 08:25:54;;;;;;;4.70;1.70;;;;;;;10.11;100.00;101034.97;5114834;28;20116;-52
2022/11/06 08:28:27;;;;;;;5.95;1.90;;;;;;;10.22;100.00;101031.69;5114669;28;20055;-51
2022/11/06 08:30:55;;;;;;;6.65;2.20;;;;;;;10.24;100.00;101025.41;5114480;28;20426;-56
2022/11/06 08:33:24;;;;;;;6.90;1.75;;;;;;;10.27;100.00;101029.66;5110698;28;20046;-56
2022/11/06 08:35:52;;;;;;;7.53;1.85;;;;;;;10.37;100.00;101033.41;5112080;28;20051;-56
2022/11/06 08:38:20;;;;;;;9.57;2.75;;;;;;;10.34;100.00;101024.84;5114636;27;20398;-56
2022/11/06 08:40:49;;;;;;;8.32;2.30;;;;;;;10.35;100.00;101019.53;5112241;28;20513;-56
2022/11/06 08:43:23;;;;;;;7.22;2.15;;;;;;;10.38;100.00;101003.56;5111075;28;20056;-56
2022/11/06 08:45:51;;;;;;;6.45;2.10;;;;;;;10.39;100.00;100996.50;5110962;27;20047;-56
2022/11/06 08:48:19;;;;;;;7.75;2.00;;;;;;;10.44;100.00;101002.34;5110157;28;20544;-56
2022/11/06 08:50:47;;;;;;;6.68;2.00;;;;;;;10.37;100.00;100993.97;5110696;28;20140;-56
2022/11/06 08:53:15;;;;;;;10.57;2.38;;;;;;;10.34;100.00;100986.25;5110254;28;20036;-56
2022/11/06 08:55:44;;;;;;;7.70;2.15;;;;;;;10.43;100.00;100984.88;5110182;28;20448;-56
2022/11/06 08:58:14;;;;;;;6.53;2.30;;;;;;;10.44;100.00;100983.94;5111218;28;20047;-51
2022/11/06 09:00:42;;;;;;;9.95;2.55;;;;;;;10.49;100.00;100987.97;5111084;28;20044;-53
2022/11/06 09:03:12;;;;;;;7.65;1.92;;;;;;;10.51;100.00;100973.88;5111968;28;20044;-52
2022/11/06 09:05:42;;;;;;;8.18;2.03;;;;;;;10.64;100.00;100972.16;5113033;28;20052;-53
2022/11/06 09:08:11;;;;;;;7.85;2.20;;;;;;;10.67;100.00;100966.72;5114131;28;20061;-52
2022/11/06 09:10:41;;;;;;;10.05;2.30;;;;;;;10.71;100.00;100976.09;5113841;28;20042;-52
2022/11/06 09:13:09;;;;;;;7.00;2.40;;;;;;;10.82;100.00;100963.13;5113944;28;20127;-52
2022/11/06 09:15:39;;;;;;;9.70;3.08;;;;;;;10.76;100.00;100976.66;5114001;28;20044;-52
2022/11/06 09:18:08;;;;;;;8.85;1.65;;;;;;;10.91;100.00;100969.56;5113588;27;20047;-52
2022/11/06 09:20:36;;;;;;;8.95;1.98;;;;;;;10.95;100.00;100972.84;5113936;28;20054;-53
2022/11/06 09:23:06;;;;;;;5.07;1.83;;;;;;;11.05;100.00;100968.66;5113804;28;20053;-48
2022/11/06 09:25:36;;;;;;;9.32;2.38;;;;;;;11.05;100.00;100960.75;5112998;28;20056;-52
2022/11/06 09:28:04;;;;;;;7.03;2.17;;;;;;;11.03;100.00;100948.66;5110514;28;20051;-53
2022/11/06 09:30:32;;;;;;;6.15;2.05;;;;;;;11.15;100.00;100946.06;5110116;28;20058;-53
2022/11/06 09:33:02;;;;;;;10.13;2.13;;;;;;;11.25;100.00;100945.47;5112800;28;20681;-52
2022/11/06 09:35:35;;;;;;;9.38;2.30;;;;;;;11.24;100.00;100936.69;5113183;28;20043;-53
2022/11/06 09:38:05;;;;;;;5.32;2.20;;;;;;;11.29;100.00;100931.97;5110364;27;20149;-53
2022/11/06 09:40:36;;;;;;;6.88;2.00;;;;;;;11.36;100.00;100931.56;5108369;28;20051;-52
2022/11/06 09:43:15;;;;;;;8.18;1.77;;;;;;;11.41;100.00;100926.81;5109373;28;20044;-52
2022/11/06 09:45:44;;;;;;;7.28;2.55;;;;;;;11.41;100.00;100921.56;5108025;28;20142;-53
2022/11/06 09:48:21;;;;;;;6.68;2.03;;;;;;;11.44;100.00;100922.22;5109883;28;20046;-52
2022/11/06 09:50:54;;;;;;;7.35;2.50;;;;;;;11.58;100.00;100920.44;5112959;28;20089;-51
2022/11/06 09:53:29;;;;;;;7.47;2.03;;;;;;;11.60;100.00;100916.75;5113395;28;20047;-53
2022/11/06 09:56:00;;;;;;;6.60;1.70;;;;;;;11.64;100.00;100917.38;5110648;28;20067;-53
2022/11/06 09:58:34;;;;;;;6.93;2.00;;;;;;;11.58;100.00;100921.28;5109529;28;20512;-53
2022/11/06 10:01:06;;;;;;;8.48;2.00;;;;;;;11.73;100.00;100915.91;5113038;28;20051;-53
2022/11/06 10:03:41;;;;;;;5.10;1.70;;;;;;;11.65;100.00;100919.88;5112959;28;20043;-53
2022/11/06 10:06:10;;;;;;;8.43;2.05;;;;;;;11.57;100.00;100916.94;5112797;28;20043;-53
2022/11/06 10:08:41;;;;;;;8.38;1.90;;;;;;;11.56;100.00;100919.69;5112896;27;20052;-53
2022/11/06 10:11:30;;;;;;;6.90;2.10;;;;;;;11.46;100.00;100919.47;5111638;28;20411;-52
2022/11/06 10:14:04;;;;;;;8.05;1.90;;;;;;;11.46;100.00;100912.41;5113064;28;20057;-52
2022/11/06 10:16:40;;;;;;;14.23;2.00;;;;;;;11.38;100.00;100906.81;5112857;28;20101;-52
2022/11/06 10:19:23;;;;;;;8.13;1.80;;;;;;;11.41;100.00;100901.34;5112624;28;20047;-51
2022/11/06 10:22:05;;;;;;;7.60;1.88;;;;;;;11.33;100.00;100899.22;5112973;28;20089;-53
2022/11/06 10:24:44;;;;;;;6.28;1.80;;;;;;;11.40;100.00;100897.03;5110177;28;20512;-53
2022/11/06 10:27:16;;;;;;;5.90;2.17;;;;;;;11.41;100.00;100900.50;5108415;28;20456;-53
2022/11/06 10:30:04;;;;;;;4.95;1.80;;;;;;;11.45;100.00;100896.72;5107691;27;20058;-50
2022/11/06 10:32:59;;;;;;;8.30;1.90;;;;;;;11.59;100.00;100901.88;5108293;28;20045;-52
2022/11/06 10:35:36;;;;;;;8.07;1.90;;;;;;;11.49;100.00;100899.03;5108917;28;20514;-51
2022/11/06 10:38:09;;;;;;;5.68;1.60;;;;;;;11.60;100.00;100890.41;5109223;28;20043;-53
2022/11/06 10:40:39;;;;;;;5.72;2.05;;;;;;;11.72;100.00;100895.78;5107599;28;20162;-52
2022/11/06 10:43:19;;;;;;;9.10;1.85;;;;;;;11.66;100.00;100891.78;5108815;28;20046;-53
2022/11/06 10:45:51;;;;;;;7.97;1.70;;;;;;;11.70;100.00;100881.84;5108029;28;20048;-52
2022/11/06 10:48:27;;;;;;;6.30;2.10;;;;;;;11.69;100.00;100878.38;5111672;28;20047;-52
2022/11/06 10:51:20;;;;;;;7.38;1.92;;;;;;;11.63;100.00;100887.56;5112473;28;20052;-53
2022/11/06 10:54:00;;;;;;;6.55;1.67;;;;;;;11.71;100.00;100888.81;5112546;28;20059;-52
2022/11/06 10:56:46;;;;;;;6.78;1.90;;;;;;;11.83;100.00;100878.28;5112454;28;20108;-52
2022/11/06 10:59:14;;;;;;;7.90;2.00;;;;;;;11.91;100.00;100867.19;5112588;28;20055;-53
2022/11/06 11:01:42;;;;;;;7.20;1.83;;;;;;;11.84;100.00;100865.94;5112517;28;20438;-54
2022/11/06 11:04:10;;;;;;;10.77;1.90;;;;;;;11.95;100.00;100862.56;5112301;28;20079;-52
2022/11/06 11:06:40;;;;;;;7.47;1.85;;;;;;;11.94;100.00;100855.59;5112407;28;20105;-52
2022/11/06 11:09:29;;;;;;;11.70;1.80;;;;;;;11.95;100.00;100858.13;5112246;28;20058;-52
2022/11/06 11:11:58;;;;;;;9.00;1.80;;;;;;;11.97;100.00;100847.47;5112280;28;20093;-54
2022/11/06 11:14:28;;;;;;;6.95;2.28;;;;;;;11.89;100.00;100840.13;5111211;28;20085;-54
2022/11/06 11:17:00;;;;;;;7.97;1.70;;;;;;;11.91;100.00;100840.81;5109313;28;20410;-54
2022/11/06 11:19:35;;;;;;;8.73;1.98;;;;;;;11.95;100.00;100833.59;5108013;28;20044;-52
2022/11/06 11:22:17;;;;;;;8.43;2.17;;;;;;;11.90;100.00;100833.91;5108656;28;20047;-53
2022/11/06 11:25:00;;;;;;;8.38;2.22;;;;;;;12.03;100.00;100827.78;5111862;28;20098;-52
2022/11/06 11:27:29;;;;;;;5.18;1.38;;;;;;;12.03;100.00;100818.06;5111614;28;20138;-52
2022/11/06 11:29:58;;;;;;;7.55;1.77;;;;;;;12.05;100.00;100817.94;5112084;28;20394;-53
2022/11/06 11:32:30;;;;;;;8.82;1.60;;;;;;;12.03;100.00;100817.25;5111995;28;20055;-53
2022/11/06 11:34:59;;;;;;;8.98;1.92;;;;;;;12.08;100.00;100805.41;5111981;28;20040;-54
2022/11/06 11:37:30;;;;;;;5.57;1.77;;;;;;;12.00;100.00;100808.59;5110583;28;20078;-53
2022/11/06 11:40:20;;;;;;;9.57;2.00;;;;;;;12.11;100.00;100805.19;5107927;28;20100;-51
2022/11/06 11:42:49;;;;;;;7.25;1.80;;;;;;;12.16;100.00;100789.00;5115227;28;20051;-51
2022/11/06 11:45:18;;;;;;;8.43;1.48;;;;;;;12.14;100.00;100804.13;5115952;27;20154;-51
2022/11/06 11:47:48;;;;;;;8.68;1.90;;;;;;;12.31;100.00;100805.50;5115813;28;20417;-53
2022/11/06 11:50:24;;;;;;;7.82;2.22;;;;;;;12.32;100.00;100800.16;5115390;28;20077;-53
2022/11/06 11:52:58;;;;;;;6.63;1.55;;;;;;;12.33;100.00;100780.72;5115475;28;20039;-53